createdAt,value
2019-05-12T00:01:59.258Z,97305.17
2019-05-12T00:04:29.485Z,97307.98
2019-05-12T00:06:59.601Z,97297.08
2019-05-12T00:09:29.857Z,97303.16
2019-05-12T00:12:00.051Z,97303.33
2019-05-12T00:14:30.261Z,97299.07
2019-05-12T00:17:00.502Z,97296.70
2019-05-12T00:19:30.642Z,97300.45
2019-05-12T00:22:00.809Z,97300.09
2019-05-12T00:24:31.338Z,97307.53
2019-05-12T00:27:05.809Z,97304.83
2019-05-12T00:29:35.204Z,97314.80
2019-05-12T00:32:04.591Z,97313.27
2019-05-12T00:34:33.975Z,97313.59
2019-05-12T00:37:03.691Z,97323.02
2019-05-12T00:39:33.727Z,97322.38
2019-05-12T00:42:03.874Z,97314.59
2019-05-12T00:44:33.653Z,97326.09
2019-05-12T00:47:03.904Z,97334.86
2019-05-12T00:49:33.845Z,97340.48
2019-05-12T00:52:04.094Z,97345.57
2019-05-12T00:54:34.550Z,97339.16
2019-05-12T00:57:04.683Z,97333.05
2019-05-12T00:59:34.065Z,97327.72
2019-05-12T01:02:04.124Z,97328.73
2019-05-12T01:04:34.565Z,97339.98
2019-05-12T01:07:04.488Z,97341.98
2019-05-12T01:09:34.751Z,97349.54
2019-05-12T01:12:07.801Z,97350.80
2019-05-12T01:14:38.252Z,97346.25
2019-05-12T01:17:08.399Z,97331.98
2019-05-12T01:19:40.469Z,97340.34
2019-05-12T01:22:08.974Z,97346.72
2019-05-12T01:24:38.476Z,97333.91
2019-05-12T01:27:08.678Z,97342.22
2019-05-12T01:29:38.577Z,97346.53
2019-05-12T01:32:12.623Z,97352.81
2019-05-12T01:34:42.192Z,97364.33
2019-05-12T01:37:23.299Z,97366.42
2019-05-12T01:39:54.557Z,97370.62
2019-05-12T01:42:24.181Z,97378.63
2019-05-12T01:44:53.557Z,97385.88
2019-05-12T01:47:22.949Z,97386.69
2019-05-12T01:49:52.401Z,97392.42
2019-05-12T01:52:21.944Z,97397.71
2019-05-12T01:54:51.330Z,97406.10
2019-05-12T01:57:20.733Z,97408.29
2019-05-12T01:59:50.113Z,97411.23
2019-05-12T02:02:20.483Z,97407.66
2019-05-12T02:05:03.720Z,97403.03
2019-05-12T02:07:35.454Z,97412.52
2019-05-12T02:10:09.116Z,97416.27
2019-05-12T02:12:38.403Z,97415.06
2019-05-12T02:15:08.631Z,97420.27
2019-05-12T02:17:39.079Z,97423.22
2019-05-12T02:20:09.473Z,97421.52
2019-05-12T02:22:39.011Z,97427.45
2019-05-12T02:25:09.358Z,97427.00
2019-05-12T02:27:38.736Z,97426.31
2019-05-12T02:30:10.119Z,97413.78
2019-05-12T02:32:48.563Z,97417.28
2019-05-12T02:35:15.885Z,97422.31
2019-05-12T02:37:45.223Z,97426.56
2019-05-12T02:40:15.366Z,97428.94
2019-05-12T02:42:46.580Z,97424.72
2019-05-12T02:45:16.371Z,97426.31
2019-05-12T02:47:46.039Z,97434.73
2019-05-12T02:50:18.551Z,97433.68
2019-05-12T02:52:47.876Z,97430.66
2019-05-12T02:55:17.197Z,97421.38
2019-05-12T02:57:48.319Z,97425.77
2019-05-12T03:00:17.836Z,97428.75
2019-05-12T03:02:50.075Z,97434.34
2019-05-12T03:05:19.458Z,97441.55
2019-05-12T03:07:49.718Z,97446.55
2019-05-12T03:10:19.247Z,97453.06
2019-05-12T03:12:48.635Z,97456.31
2019-05-12T03:15:18.028Z,97462.00
2019-05-12T03:17:47.415Z,97469.98
2019-05-12T03:20:16.806Z,97465.41
2019-05-12T03:22:46.197Z,97467.73
2019-05-12T03:25:24.572Z,97467.45
2019-05-12T03:27:47.473Z,97463.66
2019-05-12T03:30:19.491Z,97470.05
2019-05-12T03:32:48.264Z,97480.45
2019-05-12T03:35:18.366Z,97486.21
2019-05-12T03:37:48.793Z,97478.28
2019-05-12T03:40:18.265Z,97488.84
2019-05-12T03:42:47.645Z,97485.30
2019-05-12T03:45:17.645Z,97488.58
2019-05-12T03:47:47.807Z,97496.59
2019-05-12T03:50:18.048Z,97499.58
2019-05-12T03:52:48.313Z,97505.19
2019-05-12T03:55:31.701Z,97500.14
2019-05-12T03:57:50.074Z,97505.80
2019-05-12T04:00:19.997Z,97513.24
2019-05-12T04:02:49.456Z,97510.91
2019-05-12T04:05:19.198Z,97516.72
2019-05-12T04:07:49.487Z,97514.95
2019-05-12T04:10:19.618Z,97515.87
2019-05-12T04:12:49.991Z,97514.34
2019-05-12T04:15:20.127Z,97516.37
2019-05-12T04:17:50.442Z,97515.39
2019-05-12T04:20:20.593Z,97518.56
2019-05-12T04:22:50.771Z,97520.34
2019-05-12T04:25:20.995Z,97528.19
2019-05-12T04:27:54.033Z,97533.88
2019-05-12T04:30:25.003Z,97536.80
2019-05-12T04:32:55.334Z,97533.14
2019-05-12T04:35:25.363Z,97540.28
2019-05-12T04:37:55.626Z,97538.24
2019-05-12T04:40:25.220Z,97542.47
2019-05-12T04:42:55.016Z,97544.68
2019-05-12T04:45:25.600Z,97547.39
2019-05-12T04:47:55.389Z,97547.51
2019-05-12T04:50:24.887Z,97556.67
2019-05-12T04:52:54.994Z,97550.30
2019-05-12T04:55:25.568Z,97561.70
2019-05-12T04:57:56.265Z,97563.05
2019-05-12T05:00:26.007Z,97565.75
2019-05-12T05:02:56.394Z,97571.36
2019-05-12T05:05:25.803Z,97575.45
2019-05-12T05:07:55.177Z,97580.45
2019-05-12T05:10:25.068Z,97577.17
2019-05-12T05:12:54.536Z,97575.41
2019-05-12T05:15:25.137Z,97578.09
2019-05-12T05:17:54.752Z,97580.14
2019-05-12T05:20:24.843Z,97578.80
2019-05-12T05:22:55.101Z,97584.27
2019-05-12T05:25:25.268Z,97582.39
2019-05-12T05:27:55.654Z,97575.47
2019-05-12T05:30:25.669Z,97570.47
2019-05-12T05:32:55.933Z,97571.11
2019-05-12T05:35:28.955Z,97578.66
2019-05-12T05:37:57.165Z,97575.05
2019-05-12T05:40:30.300Z,97571.34
2019-05-12T05:42:57.628Z,97571.26
2019-05-12T05:45:27.030Z,97574.88
2019-05-12T05:47:59.701Z,97579.36
2019-05-12T05:50:29.735Z,97576.50
2019-05-12T05:52:59.158Z,97581.78
2019-05-12T05:55:28.543Z,97584.70
2019-05-12T05:57:59.858Z,97583.70
2019-05-12T06:00:29.018Z,97582.20
2019-05-12T06:02:58.411Z,97583.61
2019-05-12T06:05:30.879Z,97590.09
2019-05-12T06:07:59.543Z,97584.67
2019-05-12T06:10:35.238Z,97586.23
2019-05-12T06:13:00.094Z,97581.62
2019-05-12T06:15:29.688Z,97587.31
2019-05-12T06:18:00.573Z,97584.85
2019-05-12T06:20:30.022Z,97592.06
2019-05-12T06:22:59.969Z,97591.42
2019-05-12T06:25:44.977Z,97590.94
2019-05-12T06:28:01.504Z,97590.94
2019-05-12T06:30:37.566Z,97588.59
2019-05-12T06:33:04.199Z,97586.23
2019-05-12T06:35:40.006Z,97589.20
2019-05-12T06:38:05.142Z,97589.98
2019-05-12T06:40:41.306Z,97594.41
2019-05-12T06:43:05.805Z,97602.70
2019-05-12T06:45:42.052Z,97597.75
2019-05-12T06:48:07.234Z,97607.20
2019-05-12T06:50:39.109Z,97604.75
2019-05-12T06:53:08.709Z,97606.95
2019-05-12T06:55:39.510Z,97608.95
2019-05-12T06:58:09.110Z,97613.08
2019-05-12T07:00:38.750Z,97619.09
2019-05-12T07:03:08.684Z,97615.18
2019-05-12T07:05:42.490Z,97623.14
2019-05-12T07:08:10.103Z,97617.28
2019-05-12T07:10:43.477Z,97624.38
2019-05-12T07:13:14.689Z,97624.38
2019-05-12T07:15:43.749Z,97631.13
2019-05-12T07:18:17.858Z,97628.51
2019-05-12T07:20:48.235Z,97630.52
2019-05-12T07:23:19.736Z,97629.86
2019-05-12T07:25:49.155Z,97638.84
2019-05-12T07:28:18.552Z,97634.91
2019-05-12T07:30:48.370Z,97640.31
2019-05-12T07:33:19.163Z,97649.58
2019-05-12T07:35:53.208Z,97652.56
2019-05-12T07:38:25.632Z,97650.08
2019-05-12T07:40:53.937Z,97655.09
2019-05-12T07:43:24.844Z,97656.13
2019-05-12T07:46:02.182Z,97658.36
2019-05-12T07:48:25.083Z,97667.27
2019-05-12T07:50:56.402Z,97668.57
2019-05-12T07:53:25.491Z,97667.08
2019-05-12T07:55:54.876Z,97669.08
2019-05-12T07:58:24.269Z,97661.32
2019-05-12T08:01:02.145Z,97654.26
2019-05-12T08:03:25.000Z,97638.97
2019-05-12T08:05:57.554Z,97642.09
2019-05-12T08:08:25.079Z,97653.02
2019-05-12T08:10:55.944Z,97649.56
2019-05-12T08:13:25.601Z,97643.52
2019-05-12T08:15:56.442Z,97645.52
2019-05-12T08:18:30.713Z,97639.34
2019-05-12T08:20:59.921Z,97645.80
2019-05-12T08:23:28.200Z,97653.67
2019-05-12T08:25:57.930Z,97651.37
2019-05-12T08:28:34.888Z,97661.71
2019-05-12T08:30:58.492Z,97664.88
2019-05-12T08:33:28.034Z,97655.83
2019-05-12T08:35:57.479Z,97669.36
2019-05-12T08:38:26.881Z,97664.77
2019-05-12T08:40:56.302Z,97668.33
2019-05-12T08:43:25.671Z,97664.72
2019-05-12T08:46:00.254Z,97671.82
2019-05-12T08:48:27.115Z,97676.87
2019-05-12T08:50:56.505Z,97666.41
2019-05-12T08:53:26.299Z,97676.66
2019-05-12T08:55:55.749Z,97683.02
2019-05-12T08:58:31.644Z,97686.69
2019-05-12T09:00:56.223Z,97688.35
2019-05-12T09:03:30.164Z,97697.87
2019-05-12T09:05:56.792Z,97706.22
2019-05-12T09:08:27.111Z,97700.25
2019-05-12T09:10:56.494Z,97700.63
2019-05-12T09:13:25.888Z,97710.88
2019-05-12T09:15:55.339Z,97715.00
2019-05-12T09:18:33.484Z,97717.77
2019-05-12T09:20:56.004Z,97719.94
2019-05-12T09:23:25.348Z,97715.63
2019-05-12T09:25:57.236Z,97727.59
2019-05-12T09:28:25.890Z,97725.59
2019-05-12T09:30:55.280Z,97722.63
2019-05-12T09:33:27.625Z,97721.63
2019-05-12T09:35:55.741Z,97727.99
2019-05-12T09:38:26.423Z,97737.27
2019-05-12T09:41:00.820Z,97745.34
2019-05-12T09:43:28.201Z,97757.67
2019-05-12T09:45:57.599Z,97755.75
2019-05-12T09:48:26.990Z,97765.74
2019-05-12T09:51:05.793Z,97770.84
2019-05-12T09:53:27.453Z,97769.80
2019-05-12T09:55:58.592Z,97780.56
2019-05-12T09:58:28.098Z,97777.39
2019-05-12T10:00:57.662Z,97778.98
2019-05-12T10:03:31.028Z,97785.81
2019-05-12T10:05:58.166Z,97789.81
2019-05-12T10:08:29.330Z,97798.08
2019-05-12T10:10:58.631Z,97797.06
2019-05-12T10:13:30.210Z,97797.71
2019-05-12T10:16:07.395Z,97801.03
2019-05-12T10:18:30.272Z,97801.81
2019-05-12T10:20:59.659Z,97805.44
2019-05-12T10:23:29.039Z,97804.81
2019-05-12T10:26:01.545Z,97802.67
2019-05-12T10:28:29.508Z,97787.30
2019-05-12T10:30:58.875Z,97791.54
2019-05-12T10:33:28.371Z,97798.22
2019-05-12T10:35:59.282Z,97785.88
2019-05-12T10:38:28.846Z,97789.91
2019-05-12T10:40:58.234Z,97789.87
2019-05-12T10:43:27.609Z,97797.95
2019-05-12T10:45:56.988Z,97791.83
2019-05-12T10:48:26.379Z,97801.88
2019-05-12T10:50:55.762Z,97798.63
2019-05-12T10:53:25.155Z,97796.47
2019-05-12T10:55:55.199Z,97806.94
2019-05-12T10:58:25.201Z,97805.34
2019-05-12T11:00:59.109Z,97796.47
2019-05-12T11:03:26.306Z,97816.02
2019-05-12T11:06:02.711Z,97806.98
2019-05-12T11:08:26.783Z,97808.94
2019-05-12T11:10:59.993Z,97810.03
2019-05-12T11:13:27.263Z,97808.09
2019-05-12T11:15:56.647Z,97819.09
2019-05-12T11:18:30.448Z,97817.89
2019-05-12T11:20:57.463Z,97824.88
2019-05-12T11:23:26.844Z,97823.11
2019-05-12T11:25:56.941Z,97823.77
2019-05-12T11:28:27.061Z,97827.38
2019-05-12T11:30:57.559Z,97828.68
2019-05-12T11:33:27.591Z,97822.14
2019-05-12T11:35:57.832Z,97817.38
2019-05-12T11:38:27.945Z,97823.11
2019-05-12T11:40:58.278Z,97824.62
2019-05-12T11:43:29.860Z,97828.79
2019-05-12T11:45:59.366Z,97824.57
2019-05-12T11:48:28.844Z,97832.98
2019-05-12T11:50:58.983Z,97829.33
2019-05-12T11:53:31.184Z,97823.73
2019-05-12T11:56:02.394Z,97826.63
2019-05-12T11:58:33.462Z,97827.75
2019-05-12T12:01:08.139Z,97825.44
2019-05-12T12:03:35.319Z,97830.19
2019-05-12T12:06:04.717Z,97834.34
2019-05-12T12:08:37.161Z,97830.27
2019-05-12T12:11:05.199Z,97833.61
2019-05-12T12:13:34.568Z,97846.59
2019-05-12T12:16:06.909Z,97853.96
2019-05-12T12:18:35.493Z,97847.84
2019-05-12T12:21:07.684Z,97844.87
2019-05-12T12:23:36.027Z,97853.64
2019-05-12T12:26:05.461Z,97858.98
2019-05-12T12:28:34.845Z,97854.03
2019-05-12T12:31:06.940Z,97862.83
2019-05-12T12:33:38.657Z,97863.80
2019-05-12T12:36:06.744Z,97861.63
2019-05-12T12:38:36.134Z,97860.20
2019-05-12T12:41:05.537Z,97858.30
2019-05-12T12:43:34.920Z,97862.73
2019-05-12T12:46:10.590Z,97857.34
2019-05-12T12:48:37.164Z,97868.39
2019-05-12T12:51:06.574Z,97866.34
2019-05-12T12:53:35.956Z,97864.55
2019-05-12T12:56:05.341Z,97863.23
2019-05-12T12:58:34.764Z,97862.07
2019-05-12T13:01:05.225Z,97864.97
2019-05-12T13:03:34.816Z,97868.16
2019-05-12T13:06:05.001Z,97860.81
2019-05-12T13:08:35.167Z,97861.39
2019-05-12T13:11:05.467Z,97858.34
2019-05-12T13:13:35.578Z,97855.97
2019-05-12T13:16:05.835Z,97861.39
2019-05-12T13:18:36.460Z,97854.59
2019-05-12T13:21:06.265Z,97863.39
2019-05-12T13:23:40.751Z,97866.82
2019-05-12T13:26:07.820Z,97867.25
2019-05-12T13:28:37.193Z,97862.07
2019-05-12T13:31:11.187Z,97863.09
2019-05-12T13:33:38.324Z,97868.31
2019-05-12T13:36:07.708Z,97870.75
2019-05-12T13:38:40.512Z,97857.31
2019-05-12T13:41:09.699Z,97855.05
2019-05-12T13:43:39.848Z,97835.61
2019-05-12T13:46:09.235Z,97843.68
2019-05-12T13:48:38.681Z,97843.68
2019-05-12T13:51:13.242Z,97846.75
2019-05-12T13:53:40.451Z,97849.39
2019-05-12T13:56:10.904Z,97842.31
2019-05-12T13:58:42.933Z,97843.11
2019-05-12T14:01:19.245Z,97853.86
2019-05-12T14:03:46.239Z,97845.86
2019-05-12T14:06:14.667Z,97848.09
2019-05-12T14:08:44.547Z,97854.27
2019-05-12T14:11:14.162Z,97859.50
2019-05-12T14:13:43.539Z,97843.88
2019-05-12T14:16:12.933Z,97850.86
2019-05-12T14:18:44.156Z,97845.77
2019-05-12T14:21:14.039Z,97845.48
2019-05-12T14:23:43.724Z,97860.37
2019-05-12T14:26:13.624Z,97864.09
2019-05-12T14:28:45.498Z,97863.09
2019-05-12T14:31:26.407Z,97859.34
2019-05-12T14:33:45.588Z,97871.05
2019-05-12T14:36:21.680Z,97874.25
2019-05-12T14:38:46.756Z,97880.67
2019-05-12T14:41:16.815Z,97875.86
2019-05-12T14:43:47.950Z,97875.44
2019-05-12T14:46:17.457Z,97883.35
2019-05-12T14:48:50.441Z,97880.47
2019-05-12T14:51:17.991Z,97882.89
2019-05-12T14:53:48.119Z,97881.95
2019-05-12T14:56:17.539Z,97891.11
2019-05-12T14:58:50.155Z,97893.05
2019-05-12T15:01:19.031Z,97900.13
2019-05-12T15:03:49.445Z,97907.75
2019-05-12T15:06:19.557Z,97898.01
2019-05-12T15:08:50.032Z,97899.23
2019-05-12T15:11:19.410Z,97899.23
2019-05-12T15:13:48.795Z,97913.52
2019-05-12T15:16:18.171Z,97915.56
2019-05-12T15:18:50.122Z,97921.72
2019-05-12T15:21:21.418Z,97917.56
2019-05-12T15:23:53.182Z,97924.70
2019-05-12T15:26:24.000Z,97937.13
2019-05-12T15:28:54.292Z,97936.70
2019-05-12T15:31:23.867Z,97926.72
2019-05-12T15:33:53.255Z,97942.80
2019-05-12T15:36:24.462Z,97933.23
2019-05-12T15:38:55.755Z,97944.05
2019-05-12T15:41:25.029Z,97931.77
2019-05-12T15:43:55.837Z,97936.91
2019-05-12T15:46:26.553Z,97923.03
2019-05-12T15:48:55.944Z,97929.19
2019-05-12T15:51:25.318Z,97936.75
2019-05-12T15:53:57.373Z,97936.51
2019-05-12T15:56:26.407Z,97931.66
2019-05-12T15:59:00.723Z,97939.92
2019-05-12T16:01:27.055Z,97945.22
2019-05-12T16:03:56.556Z,97935.92
2019-05-12T16:06:25.943Z,97948.91
2019-05-12T16:08:55.334Z,97946.50
2019-05-12T16:11:24.721Z,97938.67
2019-05-12T16:13:59.238Z,97936.03
2019-05-12T16:16:25.249Z,97956.61
2019-05-12T16:18:54.630Z,97958.53
2019-05-12T16:21:24.025Z,97961.50
2019-05-12T16:23:56.436Z,97965.70
2019-05-12T16:26:24.488Z,97974.47
2019-05-12T16:29:02.330Z,97983.16
2019-05-12T16:31:24.959Z,97982.92
2019-05-12T16:34:01.085Z,97972.13
2019-05-12T16:36:25.423Z,97981.10
2019-05-12T16:38:58.093Z,97983.00
2019-05-12T16:41:29.680Z,97982.24
2019-05-12T16:43:57.059Z,97989.14
2019-05-12T16:46:26.458Z,97987.32
2019-05-12T16:48:57.059Z,97995.57
2019-05-12T16:51:26.507Z,97988.39
2019-05-12T16:53:55.882Z,97990.89
2019-05-12T16:56:29.539Z,97989.70
2019-05-12T16:58:56.399Z,97989.89
2019-05-12T17:01:29.186Z,98013.92
2019-05-12T17:03:56.865Z,98014.87
2019-05-12T17:06:28.597Z,98023.88
2019-05-12T17:08:57.354Z,98007.87
2019-05-12T17:11:30.806Z,98001.87
2019-05-12T17:14:04.050Z,97990.77
2019-05-12T17:16:35.888Z,97991.89
2019-05-12T17:19:05.274Z,97981.41
2019-05-12T17:21:33.409Z,97997.17
2019-05-12T17:24:04.005Z,97983.23
2019-05-12T17:26:33.538Z,97979.29
2019-05-12T17:29:03.165Z,97987.84
2019-05-12T17:31:33.840Z,97992.67
2019-05-12T17:34:06.397Z,98005.27
2019-05-12T17:36:34.709Z,97991.92
2019-05-12T17:39:06.399Z,98012.73
2019-05-12T17:41:40.500Z,98010.05
2019-05-12T17:44:06.010Z,98017.96
2019-05-12T17:46:38.037Z,98022.13
2019-05-12T17:49:06.721Z,98009.63
2019-05-12T17:51:36.103Z,98016.27
2019-05-12T17:54:07.243Z,98013.39
2019-05-12T17:56:38.847Z,98002.17
2019-05-12T17:59:08.602Z,97987.06
2019-05-12T18:01:38.957Z,98007.32
2019-05-12T18:04:08.423Z,97993.80
2019-05-12T18:06:37.871Z,98004.93
2019-05-12T18:09:15.646Z,98003.37
2019-05-12T18:11:38.971Z,97995.99
2019-05-12T18:14:08.271Z,97980.42
2019-05-12T18:16:37.744Z,97984.81
2019-05-12T18:19:09.109Z,97997.78
2019-05-12T18:21:39.468Z,97995.36
2019-05-12T18:24:11.213Z,97997.95
2019-05-12T18:26:39.942Z,97998.00
2019-05-12T18:29:09.333Z,98000.53
2019-05-12T18:31:38.706Z,98001.44
2019-05-12T18:34:08.100Z,98007.41
2019-05-12T18:36:37.487Z,97999.02
2019-05-12T18:39:11.766Z,97994.53
2019-05-12T18:41:39.159Z,98012.21
2019-05-12T18:44:08.620Z,98005.29
2019-05-12T18:46:44.887Z,97982.23
2019-05-12T18:49:12.304Z,98008.25
2019-05-12T18:51:40.182Z,98004.30
2019-05-12T18:54:11.048Z,97994.70
2019-05-12T18:56:40.660Z,98025.59
2019-05-12T18:59:11.879Z,98029.03
2019-05-12T19:01:43.493Z,98025.38
2019-05-12T19:04:14.371Z,98027.30
2019-05-12T19:06:44.152Z,98032.52
2019-05-12T19:09:14.584Z,98026.89
2019-05-12T19:11:46.683Z,98036.23
2019-05-12T19:14:15.066Z,98011.61
2019-05-12T19:16:44.462Z,98027.25
2019-05-12T19:19:16.784Z,98036.44
2019-05-12T19:21:46.808Z,98052.00
2019-05-12T19:24:19.879Z,98054.18
2019-05-12T19:26:48.445Z,98052.89
2019-05-12T19:29:19.480Z,98056.14
2019-05-12T19:31:52.969Z,98053.53
2019-05-12T19:34:25.226Z,98057.03
2019-05-12T19:36:51.278Z,98067.91
2019-05-12T19:39:27.136Z,98073.80
2019-05-12T19:41:56.508Z,98069.62
2019-05-12T19:44:30.499Z,98079.87
2019-05-12T19:46:58.025Z,98062.78
2019-05-12T19:49:36.949Z,98086.48
2019-05-12T19:52:03.566Z,98071.18
2019-05-12T19:54:36.905Z,98052.20
2019-05-12T19:57:12.992Z,98062.19
2019-05-12T19:59:44.017Z,98068.31
2019-05-12T20:02:10.016Z,98055.66
2019-05-12T20:04:43.215Z,98065.33
2019-05-12T20:07:10.489Z,98069.25
2019-05-12T20:09:39.909Z,98056.31
2019-05-12T20:12:15.608Z,98071.05
2019-05-12T20:14:40.386Z,98088.61
2019-05-12T20:17:09.775Z,98076.39
2019-05-12T20:19:39.148Z,98072.30
2019-05-12T20:22:08.549Z,98066.09
2019-05-12T20:24:37.993Z,98059.37
2019-05-12T20:27:10.480Z,98073.31
2019-05-12T20:29:38.521Z,98064.59
2019-05-12T20:32:07.896Z,98080.66
2019-05-12T20:34:47.998Z,98064.17
2019-05-12T20:37:13.358Z,98068.27
2019-05-12T20:39:39.724Z,98048.59
2019-05-12T20:42:09.113Z,98054.73
2019-05-12T20:44:38.776Z,98076.13
2019-05-12T20:47:08.158Z,98073.64
2019-05-12T20:49:45.072Z,98049.16
2019-05-12T20:52:09.730Z,98038.53
2019-05-12T20:54:39.200Z,98038.59
2019-05-12T20:57:08.587Z,98070.69
2019-05-12T20:59:37.970Z,98032.79
2019-05-12T21:02:08.149Z,98059.72
2019-05-12T21:04:38.026Z,98065.60
2019-05-12T21:07:07.571Z,98060.02
2019-05-12T21:09:37.210Z,98065.94
2019-05-12T21:12:06.598Z,98048.50
2019-05-12T21:14:35.978Z,98015.27
2019-05-12T21:17:09.343Z,98060.69
2019-05-12T21:19:38.814Z,98052.26
2019-05-12T21:22:07.553Z,98062.55
2019-05-12T21:24:39.379Z,98065.73
2019-05-12T21:27:09.507Z,98057.00
2019-05-12T21:29:39.107Z,98067.41
2019-05-12T21:32:13.840Z,98069.77
2019-05-12T21:34:39.571Z,98066.35
2019-05-12T21:37:09.013Z,98075.54
2019-05-12T21:39:40.495Z,98061.36
2019-05-12T21:42:09.558Z,98068.74
2019-05-12T21:44:41.292Z,98044.23
2019-05-12T21:47:10.724Z,98055.30
2019-05-12T21:49:42.625Z,98057.20
2019-05-12T21:52:13.576Z,98061.91
2019-05-12T21:54:43.930Z,98075.84
2019-05-12T21:57:13.450Z,98063.32
2019-05-12T21:59:42.829Z,98086.15
2019-05-12T22:02:14.114Z,98062.09
2019-05-12T22:04:45.727Z,98087.88
2019-05-12T22:07:15.192Z,98095.09
2019-05-12T22:09:46.980Z,98085.25
2019-05-12T22:12:15.783Z,98082.08
2019-05-12T22:14:46.266Z,98080.17
2019-05-12T22:17:15.732Z,98080.17
2019-05-12T22:19:45.107Z,98113.92
2019-05-12T22:22:19.617Z,98103.34
2019-05-12T22:24:46.681Z,98095.83
2019-05-12T22:27:25.810Z,98110.08
2019-05-12T22:29:47.175Z,98101.28
2019-05-12T22:32:19.125Z,98083.84
2019-05-12T22:34:48.715Z,98091.38
2019-05-12T22:37:18.113Z,98112.03
2019-05-12T22:39:47.491Z,98108.82
2019-05-12T22:42:21.484Z,98109.52
2019-05-12T22:44:55.370Z,98116.55
2019-05-12T22:47:19.063Z,98145.07
2019-05-12T22:49:52.134Z,98142.77
2019-05-12T22:52:19.536Z,98146.65
2019-05-12T22:54:51.104Z,98146.11
2019-05-12T22:57:20.516Z,98170.42
2019-05-12T22:59:49.936Z,98164.96
2019-05-12T23:02:28.063Z,98167.82
2019-05-12T23:04:50.663Z,98163.83
2019-05-12T23:07:27.823Z,98158.73
2019-05-12T23:09:51.131Z,98159.58
2019-05-12T23:12:20.515Z,98159.58
2019-05-12T23:14:54.189Z,98157.68
2019-05-12T23:17:20.977Z,98168.81
2019-05-12T23:19:55.068Z,98151.64
2019-05-12T23:22:23.492Z,98151.64
2019-05-12T23:24:54.688Z,98169.81
2019-05-12T23:27:29.786Z,98171.23
2019-05-12T23:29:55.738Z,98164.65
2019-05-12T23:32:25.118Z,98178.59
2019-05-12T23:34:58.588Z,98180.43
2019-05-12T23:37:30.255Z,98173.48
2019-05-12T23:39:56.989Z,98169.09
2019-05-12T23:42:26.394Z,98159.16
2019-05-12T23:44:55.770Z,98174.48
2019-05-12T23:47:25.181Z,98180.72
2019-05-12T23:49:55.130Z,98182.77
2019-05-12T23:52:24.766Z,98189.09
2019-05-12T23:54:54.784Z,98190.25
2019-05-12T23:57:24.778Z,98194.41
2019-05-12T23:59:54.803Z,98218.45
